createdAt,value
2017-12-17T00:01:54.848Z,19.00
2017-12-17T00:04:23.460Z,8.97
2017-12-17T00:06:51.870Z,16.00
2017-12-17T00:09:21.068Z,14.07
2017-12-17T00:11:49.702Z,19.97
2017-12-17T00:14:18.152Z,9.33
2017-12-17T00:16:46.617Z,15.00
2017-12-17T00:19:15.862Z,6.40
2017-12-17T00:21:44.330Z,6.80
2017-12-17T00:24:12.790Z,7.80
2017-12-17T00:26:42.316Z,6.37
2017-12-17T00:29:10.940Z,5.63
2017-12-17T00:31:39.360Z,13.27
2017-12-17T00:34:08.679Z,11.30
2017-12-17T00:36:37.136Z,12.07
2017-12-17T00:39:05.545Z,13.63
2017-12-17T00:41:33.986Z,15.83
2017-12-17T00:44:03.155Z,5.60
2017-12-17T00:46:31.573Z,7.73
2017-12-17T00:49:01.361Z,9.90
2017-12-17T00:51:29.736Z,9.53
2017-12-17T00:53:58.115Z,10.67
2017-12-17T00:56:26.648Z,14.13
2017-12-17T00:58:55.039Z,11.50
2017-12-17T01:01:23.438Z,15.57
2017-12-17T01:03:52.037Z,18.00
2017-12-17T01:06:20.420Z,8.03
2017-12-17T01:08:48.791Z,3.97
2017-12-17T01:11:17.534Z,9.80
2017-12-17T01:13:46.018Z,3.93
2017-12-17T01:16:14.460Z,7.20
2017-12-17T01:18:43.764Z,6.53
2017-12-17T01:21:12.947Z,12.90
2017-12-17T01:23:41.344Z,9.50
2017-12-17T01:26:10.952Z,8.87
2017-12-17T01:28:40.142Z,8.70
2017-12-17T01:31:09.918Z,14.50
2017-12-17T01:33:39.218Z,2.47
2017-12-17T01:36:07.658Z,9.10
2017-12-17T01:38:37.029Z,4.70
2017-12-17T01:41:05.720Z,6.33
2017-12-17T01:43:34.150Z,15.33
2017-12-17T01:46:02.575Z,5.37
2017-12-17T01:48:31.129Z,1.97
2017-12-17T01:50:59.569Z,1.70
2017-12-17T01:53:28.019Z,3.80
2017-12-17T01:55:56.503Z,7.70
2017-12-17T01:58:25.695Z,3.50
2017-12-17T02:00:54.119Z,4.70
2017-12-17T02:03:22.893Z,9.33
2017-12-17T02:05:51.333Z,9.07
2017-12-17T02:08:19.772Z,14.13
2017-12-17T02:10:48.407Z,2.53
2017-12-17T02:13:17.207Z,10.07
2017-12-17T02:15:46.422Z,6.37
2017-12-17T02:18:14.907Z,8.70
2017-12-17T02:20:43.385Z,12.40
2017-12-17T02:23:11.811Z,6.70
2017-12-17T02:25:40.377Z,3.00
2017-12-17T02:28:08.808Z,8.33
2017-12-17T02:30:37.996Z,5.40
2017-12-17T02:33:06.979Z,6.63
2017-12-17T02:35:35.409Z,5.20
2017-12-17T02:38:03.877Z,1.00
2017-12-17T02:40:32.640Z,2.83
2017-12-17T02:43:01.103Z,5.10
2017-12-17T02:45:29.537Z,5.97
2017-12-17T02:47:58.032Z,13.03
2017-12-17T02:50:26.518Z,7.70
2017-12-17T02:52:54.965Z,4.50
2017-12-17T02:55:24.216Z,7.70
2017-12-17T02:57:52.672Z,4.90
2017-12-17T03:00:26.002Z,3.73
2017-12-17T03:02:54.475Z,4.27
2017-12-17T03:05:22.901Z,6.17
2017-12-17T03:07:51.394Z,4.43
2017-12-17T03:10:19.857Z,4.10
2017-12-17T03:12:49.088Z,5.27
2017-12-17T03:15:18.129Z,10.43
2017-12-17T03:17:46.567Z,5.00
2017-12-17T03:20:15.022Z,7.07
2017-12-17T03:22:43.544Z,5.20
2017-12-17T03:25:12.050Z,12.90
2017-12-17T03:27:40.536Z,6.77
2017-12-17T03:30:09.106Z,9.00
2017-12-17T03:32:37.543Z,9.20
2017-12-17T03:35:06.401Z,7.73
2017-12-17T03:37:35.884Z,9.90
2017-12-17T03:40:04.375Z,3.10
2017-12-17T03:42:33.718Z,15.17
2017-12-17T03:45:02.315Z,7.50
2017-12-17T03:47:30.759Z,9.03
2017-12-17T03:49:59.948Z,5.90
2017-12-17T03:52:29.289Z,11.13
2017-12-17T03:54:57.731Z,7.63
2017-12-17T03:57:26.923Z,7.33
2017-12-17T03:59:55.611Z,8.77
2017-12-17T04:02:24.819Z,15.60
2017-12-17T04:04:54.101Z,6.60
2017-12-17T04:07:23.498Z,9.30
2017-12-17T04:09:51.951Z,6.50
2017-12-17T04:12:20.269Z,6.10
2017-12-17T04:14:48.779Z,5.80
2017-12-17T04:17:17.117Z,8.47
2017-12-17T04:19:45.523Z,12.17
2017-12-17T04:22:14.369Z,8.57
2017-12-17T04:24:42.774Z,9.13
2017-12-17T04:27:11.982Z,7.83
2017-12-17T04:29:41.218Z,11.70
2017-12-17T04:32:09.679Z,11.40
2017-12-17T04:34:38.149Z,9.10
2017-12-17T04:37:07.767Z,8.00
2017-12-17T04:39:36.188Z,4.00
2017-12-17T04:42:04.606Z,5.60
2017-12-17T04:44:34.083Z,7.63
2017-12-17T04:47:02.537Z,8.23
2017-12-17T04:49:30.988Z,3.90
2017-12-17T04:51:59.642Z,3.23
2017-12-17T04:54:28.442Z,7.00
2017-12-17T04:56:57.641Z,1.63
2017-12-17T04:59:26.905Z,4.30
2017-12-17T05:01:55.322Z,12.20
2017-12-17T05:04:24.552Z,8.33
2017-12-17T05:06:53.199Z,6.03
2017-12-17T05:09:22.411Z,12.30
2017-12-17T05:11:51.610Z,8.73
2017-12-17T05:14:21.175Z,6.70
2017-12-17T05:16:49.634Z,6.60
2017-12-17T05:19:18.269Z,6.13
2017-12-17T05:21:47.539Z,5.87
2017-12-17T05:24:15.967Z,9.07
2017-12-17T05:26:44.481Z,5.83
2017-12-17T05:29:13.026Z,8.20
2017-12-17T05:31:41.495Z,8.43
2017-12-17T05:34:10.687Z,9.33
2017-12-17T05:36:40.393Z,10.07
2017-12-17T05:39:09.205Z,9.73
2017-12-17T05:41:37.635Z,9.63
2017-12-17T05:44:06.204Z,13.90
2017-12-17T05:46:35.512Z,8.37
2017-12-17T05:49:03.938Z,10.90
2017-12-17T05:51:33.243Z,14.57
2017-12-17T05:54:02.435Z,13.07
2017-12-17T05:56:30.935Z,10.40
2017-12-17T05:58:59.538Z,11.03
2017-12-17T06:01:27.985Z,12.83
2017-12-17T06:03:56.457Z,9.50
2017-12-17T06:06:25.806Z,10.27
2017-12-17T06:08:54.256Z,7.77
2017-12-17T06:11:22.736Z,8.97
2017-12-17T06:13:51.253Z,8.53
2017-12-17T06:16:20.451Z,9.13
2017-12-17T06:18:48.907Z,11.80
2017-12-17T06:21:17.660Z,10.33
2017-12-17T06:23:46.870Z,1.90
2017-12-17T06:26:16.074Z,2.60
2017-12-17T06:28:45.321Z,8.67
2017-12-17T06:31:13.752Z,1.87
2017-12-17T06:33:42.228Z,11.13
2017-12-17T06:36:11.004Z,9.50
2017-12-17T06:38:39.468Z,10.53
2017-12-17T06:41:08.306Z,10.00
2017-12-17T06:43:36.803Z,10.77
2017-12-17T06:46:05.267Z,8.87
2017-12-17T06:48:33.732Z,10.43
2017-12-17T06:51:02.971Z,11.40
2017-12-17T06:53:32.201Z,6.27
2017-12-17T06:56:00.653Z,8.00
2017-12-17T06:58:29.574Z,6.23
2017-12-17T07:00:58.032Z,9.70
2017-12-17T07:03:26.437Z,9.67
2017-12-17T07:05:55.238Z,11.90
2017-12-17T07:08:24.414Z,7.70
2017-12-17T07:10:52.860Z,8.00
2017-12-17T07:13:22.109Z,3.93
2017-12-17T07:15:51.333Z,9.83
2017-12-17T07:18:19.798Z,9.00
2017-12-17T07:20:49.191Z,7.90
2017-12-17T07:23:18.784Z,12.40
2017-12-17T07:25:47.257Z,14.00
2017-12-17T07:28:15.757Z,7.40
2017-12-17T07:30:44.155Z,11.50
2017-12-17T07:33:13.406Z,9.87
2017-12-17T07:35:41.918Z,11.33
2017-12-17T07:38:11.102Z,11.00
2017-12-17T07:40:39.548Z,9.73
2017-12-17T07:43:08.437Z,10.07
2017-12-17T07:45:36.916Z,11.10
2017-12-17T07:48:05.385Z,12.47
2017-12-17T07:50:33.867Z,7.67
2017-12-17T07:53:02.287Z,11.20
2017-12-17T07:55:30.745Z,6.97
2017-12-17T07:57:59.225Z,12.73
2017-12-17T08:00:27.742Z,7.80
2017-12-17T08:02:56.148Z,10.70
2017-12-17T08:05:24.802Z,4.33
2017-12-17T08:07:53.254Z,14.20
2017-12-17T08:10:21.750Z,17.87
2017-12-17T08:12:50.476Z,5.30
2017-12-17T08:15:19.707Z,3.57
2017-12-17T08:17:48.155Z,4.93
2017-12-17T08:20:17.392Z,7.73
2017-12-17T08:22:45.858Z,13.43
2017-12-17T08:25:14.382Z,10.13
2017-12-17T08:27:43.050Z,10.97
2017-12-17T08:30:11.484Z,17.80
2017-12-17T08:32:39.896Z,11.97
2017-12-17T08:35:08.464Z,13.53
2017-12-17T08:37:36.973Z,7.40
2017-12-17T08:40:05.413Z,12.00
2017-12-17T08:42:33.995Z,11.93
2017-12-17T08:45:03.044Z,11.07
2017-12-17T08:47:31.520Z,12.30
2017-12-17T08:50:00.161Z,11.57
2017-12-17T08:52:28.624Z,9.57
2017-12-17T08:54:57.875Z,12.10
2017-12-17T08:57:26.362Z,10.70
2017-12-17T08:59:54.825Z,12.87
2017-12-17T09:02:23.327Z,9.00
2017-12-17T09:04:51.929Z,7.83
2017-12-17T09:07:20.353Z,11.23
2017-12-17T09:09:48.757Z,6.07
2017-12-17T09:12:17.570Z,7.20
2017-12-17T09:14:46.036Z,6.73
2017-12-17T09:17:14.467Z,10.77
2017-12-17T09:19:42.951Z,8.27
2017-12-17T09:22:12.152Z,10.87
2017-12-17T09:24:40.585Z,8.90
2017-12-17T09:27:09.237Z,4.80
2017-12-17T09:29:37.656Z,10.57
2017-12-17T09:32:06.085Z,12.70
2017-12-17T09:34:34.594Z,13.07
2017-12-17T09:37:03.044Z,8.80
2017-12-17T09:39:31.475Z,8.87
2017-12-17T09:42:00.043Z,14.00
2017-12-17T09:44:28.488Z,5.77
2017-12-17T09:46:57.478Z,10.70
2017-12-17T09:49:25.956Z,15.20
2017-12-17T09:51:54.433Z,6.17
2017-12-17T09:54:23.649Z,6.93
2017-12-17T09:56:52.191Z,8.53
2017-12-17T09:59:20.652Z,9.93
2017-12-17T10:01:49.082Z,8.60
2017-12-17T10:04:17.875Z,10.77
2017-12-17T10:06:46.337Z,11.47
2017-12-17T10:09:16.458Z,10.97
2017-12-17T10:11:45.795Z,22.83
2017-12-17T10:14:14.260Z,12.53
2017-12-17T10:16:42.726Z,12.20
2017-12-17T10:19:12.300Z,6.90
2017-12-17T10:21:40.760Z,9.57
2017-12-17T10:24:09.206Z,9.53
2017-12-17T10:26:37.997Z,10.57
2017-12-17T10:29:06.545Z,15.40
2017-12-17T10:31:35.756Z,8.10
2017-12-17T10:34:05.028Z,7.80
2017-12-17T10:36:33.456Z,16.50
2017-12-17T10:39:01.900Z,8.70
2017-12-17T10:41:30.470Z,10.33
2017-12-17T10:43:58.923Z,15.67
2017-12-17T10:46:27.334Z,16.90
2017-12-17T10:48:56.375Z,5.13
2017-12-17T10:51:24.810Z,13.77
2017-12-17T10:53:53.285Z,7.23
2017-12-17T10:56:21.778Z,11.20
2017-12-17T10:58:50.210Z,15.00
2017-12-17T11:01:18.663Z,10.27
2017-12-17T11:03:47.333Z,15.53
2017-12-17T11:06:16.633Z,8.00
2017-12-17T11:08:45.833Z,13.70
2017-12-17T11:11:14.375Z,6.83
2017-12-17T11:13:42.832Z,12.17
2017-12-17T11:16:11.272Z,6.50
2017-12-17T11:18:40.538Z,8.20
2017-12-17T11:21:08.991Z,14.73
2017-12-17T11:23:37.414Z,9.10
2017-12-17T11:26:06.208Z,7.27
2017-12-17T11:28:34.661Z,11.83
2017-12-17T11:31:03.500Z,11.63
2017-12-17T11:33:32.733Z,8.27
2017-12-17T11:36:01.486Z,7.77
2017-12-17T11:38:30.697Z,23.90
2017-12-17T11:40:59.558Z,16.40
2017-12-17T11:43:28.779Z,11.07
2017-12-17T11:45:57.209Z,12.13
2017-12-17T11:48:26.127Z,9.53
2017-12-17T11:50:54.730Z,12.47
2017-12-17T11:53:23.127Z,7.20
2017-12-17T11:55:51.641Z,7.40
2017-12-17T11:58:20.057Z,9.27
2017-12-17T12:00:49.289Z,14.40
2017-12-17T12:03:17.905Z,8.43
2017-12-17T12:05:46.328Z,11.47
2017-12-17T12:08:15.612Z,5.83
2017-12-17T12:10:44.295Z,10.57
2017-12-17T12:13:12.711Z,5.23
2017-12-17T12:15:41.144Z,7.83
2017-12-17T12:18:09.933Z,7.00
2017-12-17T12:20:38.450Z,6.80
2017-12-17T12:23:06.929Z,3.70
2017-12-17T12:25:36.226Z,9.63
2017-12-17T12:28:04.692Z,7.87
2017-12-17T12:30:33.151Z,4.67
2017-12-17T12:33:01.688Z,6.93
2017-12-17T12:35:30.137Z,8.40
2017-12-17T12:37:59.316Z,7.10
2017-12-17T12:40:27.929Z,7.57
2017-12-17T12:42:57.122Z,9.17
2017-12-17T12:45:26.359Z,9.30
2017-12-17T12:47:54.942Z,6.50
2017-12-17T12:50:23.421Z,7.00
2017-12-17T12:52:52.532Z,7.47
2017-12-17T12:55:21.138Z,10.03
2017-12-17T12:57:49.618Z,9.13
2017-12-17T13:00:18.061Z,24.33
2017-12-17T13:02:46.717Z,8.03
2017-12-17T13:05:15.925Z,13.07
2017-12-17T13:07:44.320Z,12.57
2017-12-17T13:10:13.472Z,8.33
2017-12-17T13:12:41.958Z,6.33
2017-12-17T13:15:10.420Z,8.60
2017-12-17T13:17:38.897Z,11.37
2017-12-17T13:20:07.335Z,6.23
2017-12-17T13:22:35.836Z,9.23
2017-12-17T13:25:04.333Z,7.23
2017-12-17T13:27:34.368Z,7.57
2017-12-17T13:30:02.832Z,11.10
2017-12-17T13:32:31.411Z,5.80
2017-12-17T13:34:59.916Z,9.40
2017-12-17T13:37:28.331Z,6.80
2017-12-17T13:39:56.819Z,4.13
2017-12-17T13:42:25.271Z,9.33
2017-12-17T13:44:54.486Z,9.73
2017-12-17T13:47:23.062Z,5.93
2017-12-17T13:49:52.515Z,8.53
2017-12-17T13:52:20.926Z,5.70
2017-12-17T13:54:50.141Z,5.43
2017-12-17T13:57:19.889Z,8.40
2017-12-17T13:59:48.338Z,6.53
2017-12-17T14:02:17.015Z,7.60
2017-12-17T14:04:46.241Z,5.20
2017-12-17T14:07:15.300Z,7.87
2017-12-17T14:09:44.548Z,8.63
2017-12-17T14:12:13.263Z,8.57
2017-12-17T14:14:41.710Z,7.37
2017-12-17T14:17:10.270Z,2.83
2017-12-17T14:19:38.695Z,2.50
2017-12-17T14:22:07.122Z,10.03
2017-12-17T14:24:36.726Z,16.67
2017-12-17T14:27:05.934Z,17.43
2017-12-17T14:29:34.388Z,9.67
2017-12-17T14:32:02.984Z,6.20
2017-12-17T14:34:32.164Z,9.40
2017-12-17T14:37:00.951Z,7.77
2017-12-17T14:39:29.532Z,15.03
2017-12-17T14:41:57.989Z,9.93
2017-12-17T14:44:26.412Z,11.73
2017-12-17T14:46:55.660Z,10.23
2017-12-17T14:49:24.206Z,5.23
2017-12-17T14:51:52.676Z,12.00
2017-12-17T14:54:22.095Z,8.00
2017-12-17T14:56:50.918Z,16.87
2017-12-17T14:59:19.362Z,16.03
2017-12-17T15:01:48.025Z,11.37
2017-12-17T15:04:16.450Z,11.53
2017-12-17T15:06:44.951Z,12.03
2017-12-17T15:09:13.436Z,5.73
2017-12-17T15:11:41.872Z,14.07
2017-12-17T15:14:11.000Z,12.20
2017-12-17T15:16:39.610Z,7.97
2017-12-17T15:19:08.449Z,13.47
2017-12-17T15:21:36.923Z,8.53
2017-12-17T15:24:05.617Z,13.23
2017-12-17T15:26:34.077Z,11.40
2017-12-17T15:29:03.326Z,7.93
2017-12-17T15:31:32.053Z,13.73
2017-12-17T15:34:01.289Z,4.83
2017-12-17T15:36:29.747Z,12.67
2017-12-17T15:38:58.588Z,15.13
2017-12-17T15:41:27.081Z,10.23
2017-12-17T15:43:55.544Z,31.17
2017-12-17T15:46:24.044Z,10.93
2017-12-17T15:48:52.520Z,15.80
2017-12-17T15:51:21.020Z,10.60
2017-12-17T15:53:50.518Z,10.80
2017-12-17T15:56:18.978Z,10.63
2017-12-17T15:58:47.811Z,9.40
2017-12-17T16:01:17.057Z,33.30
2017-12-17T16:03:45.801Z,7.77
2017-12-17T16:06:15.060Z,4.47
2017-12-17T16:08:44.592Z,9.40
2017-12-17T16:11:13.764Z,12.10
2017-12-17T16:13:43.000Z,12.70
2017-12-17T16:16:12.128Z,14.70
2017-12-17T16:18:41.106Z,18.60
2017-12-17T16:21:09.571Z,25.47
2017-12-17T16:23:39.089Z,17.00
2017-12-17T16:26:07.564Z,14.10
2017-12-17T16:28:36.044Z,9.90
2017-12-17T16:31:04.530Z,11.43
2017-12-17T16:33:32.917Z,18.37
2017-12-17T16:36:01.372Z,12.33
2017-12-17T16:38:30.766Z,14.60
2017-12-17T16:41:00.069Z,14.40
2017-12-17T16:43:29.232Z,6.37
2017-12-17T16:45:57.905Z,7.43
2017-12-17T16:48:27.064Z,15.50
2017-12-17T16:50:55.480Z,10.67
2017-12-17T16:53:24.059Z,20.77
2017-12-17T16:55:52.851Z,20.87
2017-12-17T16:58:22.061Z,15.60
2017-12-17T17:00:51.306Z,10.63
2017-12-17T17:03:20.435Z,6.97
2017-12-17T17:05:48.874Z,18.23
2017-12-17T17:08:17.405Z,11.50
2017-12-17T17:10:46.588Z,8.40
2017-12-17T17:13:15.014Z,17.90
2017-12-17T17:15:43.821Z,11.97
2017-12-17T17:18:13.048Z,12.63
2017-12-17T17:20:41.447Z,19.50
2017-12-17T17:23:10.002Z,12.07
2017-12-17T17:25:38.426Z,22.40
2017-12-17T17:28:06.914Z,17.37
2017-12-17T17:30:35.539Z,17.37
2017-12-17T17:33:03.958Z,25.93
2017-12-17T17:35:32.354Z,10.23
2017-12-17T17:38:00.937Z,13.80
2017-12-17T17:40:29.362Z,17.73
2017-12-17T17:42:58.715Z,7.07
2017-12-17T17:45:27.440Z,25.33
2017-12-17T17:47:56.615Z,22.60
2017-12-17T17:50:25.069Z,29.10
2017-12-17T17:52:53.588Z,10.23
2017-12-17T17:55:22.788Z,15.20
2017-12-17T17:57:51.182Z,18.93
2017-12-17T18:00:19.703Z,6.27
2017-12-17T18:02:49.247Z,15.80
2017-12-17T18:05:17.678Z,15.33
2017-12-17T18:07:46.313Z,9.00
2017-12-17T18:10:14.731Z,27.27
2017-12-17T18:12:43.186Z,25.50
2017-12-17T18:15:12.485Z,38.53
2017-12-17T18:17:41.662Z,34.50
2017-12-17T18:20:10.343Z,28.30
2017-12-17T18:22:38.916Z,26.50
2017-12-17T18:25:08.167Z,22.17
2017-12-17T18:27:37.348Z,10.83
2017-12-17T18:30:06.604Z,17.23
2017-12-17T18:32:35.022Z,17.53
2017-12-17T18:35:04.196Z,19.20
2017-12-17T18:37:32.782Z,25.60
2017-12-17T18:40:01.174Z,27.30
2017-12-17T18:42:30.338Z,23.83
2017-12-17T18:44:59.141Z,19.60
2017-12-17T18:47:27.530Z,29.33
2017-12-17T18:49:56.007Z,25.63
2017-12-17T18:52:25.236Z,23.30
2017-12-17T18:54:54.399Z,12.47
2017-12-17T18:57:22.826Z,26.83
2017-12-17T18:59:51.408Z,24.60
2017-12-17T19:02:19.817Z,22.23
2017-12-17T19:04:48.337Z,14.93
2017-12-17T19:07:17.134Z,7.23
2017-12-17T19:09:46.377Z,26.43
2017-12-17T19:12:14.842Z,24.20
2017-12-17T19:14:43.717Z,26.13
2017-12-17T19:17:12.930Z,29.27
2017-12-17T19:19:41.370Z,22.97
2017-12-17T19:22:10.127Z,37.80
2017-12-17T19:24:38.563Z,32.53
2017-12-17T19:27:07.720Z,36.73
2017-12-17T19:29:36.248Z,19.63
2017-12-17T19:32:04.682Z,19.50
2017-12-17T19:34:33.112Z,13.27
2017-12-17T19:37:01.880Z,33.90
2017-12-17T19:39:31.107Z,28.67
2017-12-17T19:41:59.526Z,36.40
2017-12-17T19:44:28.240Z,26.50
2017-12-17T19:46:57.631Z,35.07
2017-12-17T19:49:26.036Z,12.63
2017-12-17T19:51:55.384Z,20.23
2017-12-17T19:54:23.781Z,23.23
2017-12-17T19:56:52.262Z,23.20
2017-12-17T19:59:20.716Z,20.00
2017-12-17T20:01:49.098Z,19.97
2017-12-17T20:04:17.493Z,40.63
2017-12-17T20:06:46.376Z,45.83
2017-12-17T20:09:14.765Z,22.37
2017-12-17T20:11:43.197Z,24.00
2017-12-17T20:14:11.692Z,31.37
2017-12-17T20:16:40.141Z,18.07
2017-12-17T20:19:09.360Z,31.17
2017-12-17T20:21:37.927Z,20.53
2017-12-17T20:24:07.447Z,15.20
2017-12-17T20:26:35.889Z,13.53
2017-12-17T20:29:04.430Z,27.03
2017-12-17T20:31:32.865Z,24.80
2017-12-17T20:34:02.094Z,36.93
2017-12-17T20:36:31.399Z,32.83
2017-12-17T20:38:59.802Z,26.50
2017-12-17T20:41:28.211Z,19.50
2017-12-17T20:43:56.673Z,26.20
2017-12-17T20:46:25.105Z,31.73
2017-12-17T20:48:53.804Z,29.70
2017-12-17T20:51:22.264Z,26.33
2017-12-17T20:53:50.650Z,23.13
2017-12-17T20:56:19.042Z,31.40
2017-12-17T20:58:47.484Z,25.47
2017-12-17T21:01:15.926Z,28.10
2017-12-17T21:03:44.309Z,29.43
2017-12-17T21:06:12.764Z,23.63
2017-12-17T21:08:41.581Z,20.23
2017-12-17T21:11:09.954Z,22.47
2017-12-17T21:13:38.812Z,21.83
2017-12-17T21:16:07.244Z,26.43
2017-12-17T21:18:36.358Z,31.77
2017-12-17T21:21:05.838Z,16.33
2017-12-17T21:23:34.261Z,25.77
2017-12-17T21:26:02.729Z,26.70
2017-12-17T21:28:31.950Z,25.47
2017-12-17T21:31:00.357Z,28.30
2017-12-17T21:33:28.785Z,22.60
2017-12-17T21:35:58.068Z,19.43
2017-12-17T21:38:26.501Z,28.17
2017-12-17T21:40:54.940Z,31.77
2017-12-17T21:43:23.377Z,28.27
2017-12-17T21:45:51.788Z,34.97
2017-12-17T21:48:20.176Z,24.33
2017-12-17T21:50:49.732Z,20.27
2017-12-17T21:53:18.112Z,33.30
2017-12-17T21:55:46.502Z,20.70
2017-12-17T21:58:14.938Z,19.20
2017-12-17T22:00:43.332Z,17.93
2017-12-17T22:03:11.739Z,24.73
2017-12-17T22:05:40.329Z,12.73
2017-12-17T22:08:08.718Z,22.30
2017-12-17T22:10:37.481Z,12.60
2017-12-17T22:13:06.216Z,15.87
2017-12-17T22:15:35.357Z,13.13
2017-12-17T22:18:04.554Z,25.60
2017-12-17T22:20:33.154Z,32.60
2017-12-17T22:23:01.574Z,21.27
2017-12-17T22:25:30.722Z,15.50
2017-12-17T22:27:59.425Z,22.70
2017-12-17T22:30:27.852Z,22.67
2017-12-17T22:32:56.291Z,13.83
2017-12-17T22:35:24.852Z,22.60
2017-12-17T22:37:53.341Z,35.80
2017-12-17T22:40:21.795Z,23.40
2017-12-17T22:42:50.403Z,20.60
2017-12-17T22:45:18.811Z,13.20
2017-12-17T22:47:47.250Z,22.67
2017-12-17T22:50:15.903Z,21.23
2017-12-17T22:52:44.402Z,13.73
2017-12-17T22:55:12.829Z,18.83
2017-12-17T22:57:41.414Z,21.27
2017-12-17T23:00:09.809Z,21.10
2017-12-17T23:02:38.224Z,11.57
2017-12-17T23:05:06.721Z,19.63
2017-12-17T23:07:35.123Z,19.97
2017-12-17T23:10:03.568Z,19.30
2017-12-17T23:12:32.548Z,13.90
2017-12-17T23:15:00.929Z,9.57
2017-12-17T23:17:29.367Z,28.87
2017-12-17T23:19:58.166Z,14.30
2017-12-17T23:22:26.538Z,8.97
2017-12-17T23:24:54.946Z,19.10
2017-12-17T23:27:23.813Z,22.00
2017-12-17T23:29:53.086Z,15.30
2017-12-17T23:32:21.536Z,13.70
2017-12-17T23:34:50.064Z,11.80
2017-12-17T23:37:18.473Z,11.77
2017-12-17T23:39:47.631Z,15.93
2017-12-17T23:42:16.109Z,11.27
2017-12-17T23:44:44.504Z,18.40
2017-12-17T23:47:12.946Z,18.30
2017-12-17T23:49:41.538Z,15.33
2017-12-17T23:52:09.995Z,11.90
2017-12-17T23:54:38.773Z,12.20
2017-12-17T23:57:07.405Z,17.47
2017-12-17T23:59:35.840Z,11.37
